Time;durP1;ratioP1;P1;durP2;ratioP2;P2;SDS_P1;SDS_P2;PMS_P1;PMS_P2;Temp;Humidity;BMP_temperature;BMP_pressure;BME280_temperature;BME280_humidity;BME280_pressure;Samples;Min_cycle;Max_cycle;Signal;HPM_P1;HPM_P2
2022/04/22 00:00:48;;;;;;;8.52;3.80;;;;;;;13.00;57.41;100365.25;5055685;28;20540;-64
2022/04/22 00:03:14;;;;;;;8.57;4.00;;;;;;;13.06;57.27;100370.34;5055731;28;20104;-62
2022/04/22 00:05:40;;;;;;;8.00;3.67;;;;;;;12.96;57.80;100376.81;5054401;28;20029;-64
2022/04/22 00:08:05;;;;;;;8.00;3.45;;;;;;;13.01;57.70;100369.63;5054218;28;20434;-64
2022/04/22 00:10:31;;;;;;;7.15;3.50;;;;;;;13.02;57.47;100358.16;5055790;28;20103;-64
2022/04/22 00:12:57;;;;;;;5.20;2.72;;;;;;;13.15;57.11;100361.28;5055947;28;20029;-63
2022/04/22 00:15:23;;;;;;;9.68;3.42;;;;;;;13.06;57.46;100358.00;5054264;28;20037;-64
2022/04/22 00:17:49;;;;;;;6.93;3.13;;;;;;;13.18;57.25;100353.25;5054623;28;20029;-64
2022/04/22 00:20:14;;;;;;;9.82;3.78;;;;;;;13.28;57.07;100344.16;5055324;28;20534;-66
2022/04/22 00:22:41;;;;;;;7.10;3.08;;;;;;;13.36;56.86;100349.16;5055099;28;20037;-65
2022/04/22 00:25:11;;;;;;;8.15;3.55;;;;;;;13.39;56.78;100343.78;5055640;28;20037;-65
2022/04/22 00:27:38;;;;;;;7.47;3.15;;;;;;;13.29;56.96;100346.75;5055246;28;20021;-65
2022/04/22 00:30:05;;;;;;;7.68;3.90;;;;;;;13.27;56.99;100348.56;5054211;28;20037;-65
2022/04/22 00:32:33;;;;;;;11.88;5.90;;;;;;;13.24;57.26;100343.38;5055335;28;20045;-64
2022/04/22 00:35:00;;;;;;;15.35;7.55;;;;;;;13.27;57.28;100345.06;5054709;28;20120;-64
2022/04/22 00:37:25;;;;;;;11.02;6.53;;;;;;;13.34;57.10;100345.75;5054284;28;20040;-64
2022/04/22 00:39:50;;;;;;;9.73;5.15;;;;;;;13.21;57.53;100342.63;5054376;28;20072;-64
2022/04/22 00:42:16;;;;;;;7.50;3.85;;;;;;;13.19;57.68;100344.44;5051905;28;20029;-64
2022/04/22 00:44:41;;;;;;;5.13;3.22;;;;;;;13.19;57.41;100349.69;5054418;28;20037;-63
2022/04/22 00:47:07;;;;;;;7.95;3.40;;;;;;;13.23;57.53;100341.66;5053644;28;20090;-64
2022/04/22 00:49:32;;;;;;;9.68;3.75;;;;;;;13.28;57.37;100345.03;5054971;28;20037;-65
2022/04/22 00:51:58;;;;;;;6.50;3.38;;;;;;;13.29;57.47;100340.63;5054499;28;20037;-65
2022/04/22 00:54:24;;;;;;;9.93;3.58;;;;;;;13.11;58.19;100347.31;5053901;28;20045;-64
2022/04/22 00:56:50;;;;;;;8.45;3.42;;;;;;;13.07;58.08;100340.41;5052759;28;20086;-65
2022/04/22 00:59:16;;;;;;;11.63;2.88;;;;;;;13.17;57.77;100347.13;5054211;28;20037;-64
2022/04/22 01:01:42;;;;;;;6.68;3.00;;;;;;;13.05;58.23;100337.84;5054817;28;20044;-64
2022/04/22 01:09:47;;;;;;;9.95;3.45;;;;;;;13.06;58.28;100338.69;5054578;28;20044;-65
2022/04/22 01:12:13;;;;;;;7.97;3.50;;;;;;;13.03;58.51;100341.44;5053394;28;20380;-64
2022/04/22 01:14:39;;;;;;;7.20;3.22;;;;;;;12.97;58.60;100331.94;5054625;28;20461;-65
2022/04/22 01:17:05;;;;;;;7.20;3.40;;;;;;;12.92;58.61;100335.63;5052855;28;20047;-65
2022/04/22 01:19:31;;;;;;;7.22;3.28;;;;;;;12.96;58.72;100346.03;5053241;28;20068;-65
2022/04/22 01:21:57;;;;;;;7.53;3.42;;;;;;;12.89;59.00;100339.25;5054620;28;20044;-66
2022/04/22 01:24:23;;;;;;;8.00;3.10;;;;;;;12.97;58.68;100349.56;5052587;28;20392;-65
2022/04/22 01:26:49;;;;;;;7.88;3.50;;;;;;;12.86;59.09;100347.25;5053628;28;20487;-64
2022/04/22 01:29:15;;;;;;;10.38;3.60;;;;;;;12.94;58.67;100345.22;5068964;28;20021;-64
2022/04/22 01:31:43;;;;;;;8.45;3.72;;;;;;;12.79;59.35;100349.19;5053383;28;20040;-64
2022/04/22 01:34:09;;;;;;;9.30;3.38;;;;;;;12.76;59.40;100330.84;5053264;28;20048;-64
2022/04/22 01:36:35;;;;;;;8.95;3.83;;;;;;;12.88;59.19;100339.28;5053466;28;20040;-64
2022/04/22 01:39:00;;;;;;;8.90;3.78;;;;;;;12.99;58.72;100335.38;5054350;28;20044;-62
2022/04/22 01:41:27;;;;;;;8.82;3.78;;;;;;;12.93;58.92;100334.75;5053162;28;20036;-64
2022/04/22 01:43:53;;;;;;;8.75;4.10;;;;;;;12.87;59.01;100325.22;5048869;28;20037;-65
2022/04/22 01:46:18;;;;;;;11.85;5.05;;;;;;;12.83;59.20;100332.38;5052426;28;20035;-65
2022/04/22 01:48:43;;;;;;;11.10;5.10;;;;;;;12.83;59.39;100331.50;5054728;28;20037;-66
2022/04/22 01:51:09;;;;;;;17.63;6.13;;;;;;;12.73;59.73;100335.38;5053852;28;20087;-65
2022/04/22 01:53:34;;;;;;;11.98;5.40;;;;;;;12.76;59.64;100335.25;5054307;28;20452;-65
2022/04/22 01:56:00;;;;;;;8.50;5.07;;;;;;;12.91;59.26;100332.13;5054043;28;20510;-64
2022/04/22 01:58:25;;;;;;;10.35;3.92;;;;;;;12.98;59.00;100338.09;5053369;28;20039;-65
2022/04/22 02:00:50;;;;;;;8.45;3.88;;;;;;;12.88;59.28;100337.50;5036773;28;20028;-64
2022/04/22 02:03:16;;;;;;;11.93;4.82;;;;;;;12.71;60.04;100337.19;5054541;28;20048;-65
2022/04/22 02:05:42;;;;;;;8.23;3.78;;;;;;;12.86;59.27;100336.69;5053269;28;20450;-65
2022/04/22 02:08:08;;;;;;;7.95;3.88;;;;;;;12.94;58.90;100325.91;5054247;28;20033;-64
2022/04/22 02:10:33;;;;;;;7.28;3.67;;;;;;;12.86;58.92;100325.28;5051801;28;20404;-65
2022/04/22 02:12:59;;;;;;;6.78;3.50;;;;;;;12.96;58.46;100329.34;5054541;28;20484;-64
2022/04/22 02:15:26;;;;;;;8.77;4.13;;;;;;;12.85;58.48;100324.44;5054498;28;20041;-64
2022/04/22 02:17:52;;;;;;;7.28;4.22;;;;;;;12.96;57.91;100327.56;5053192;28;20033;-65
2022/04/22 02:20:18;;;;;;;8.77;3.95;;;;;;;13.02;57.88;100337.94;5051804;28;20049;-64
2022/04/22 02:22:43;;;;;;;7.82;3.80;;;;;;;13.05;57.53;100329.06;5049804;28;20044;-64
2022/04/22 02:25:09;;;;;;;6.53;3.70;;;;;;;13.04;57.48;100325.53;5055836;28;20025;-65
2022/04/22 02:30:19;;;;;;;7.43;3.65;;;;;;;13.11;57.31;100335.91;5052803;28;20499;-65
2022/04/22 02:32:46;;;;;;;9.10;4.70;;;;;;;12.99;57.68;100334.53;5053745;28;20033;-65
2022/04/22 02:35:13;;;;;;;6.15;4.18;;;;;;;13.05;57.48;100324.66;5052437;28;20028;-65
2022/04/22 02:37:42;;;;;;;7.65;4.15;;;;;;;13.03;57.73;100334.38;5052863;28;20043;-65
2022/04/22 02:40:08;;;;;;;7.47;4.90;;;;;;;12.93;58.04;100338.22;5053873;28;20041;-63
2022/04/22 02:45:26;;;;;;;9.88;4.55;;;;;;;12.82;58.29;100342.97;5053117;28;20051;-65
2022/04/22 02:47:52;;;;;;;6.35;4.30;;;;;;;12.90;58.08;100346.25;5052361;28;20120;-64
2022/04/22 02:50:17;;;;;;;8.35;4.68;;;;;;;12.86;58.14;100347.25;5052509;28;20132;-63
2022/04/22 02:52:43;;;;;;;9.45;4.25;;;;;;;12.85;58.17;100344.63;5052171;28;20037;-64
2022/04/22 02:55:08;;;;;;;10.80;4.38;;;;;;;12.79;58.21;100341.28;5053534;28;20079;-64
2022/04/22 02:57:35;;;;;;;9.38;3.95;;;;;;;12.87;58.18;100343.69;5052576;28;20037;-64
2022/04/22 03:00:01;;;;;;;7.90;3.90;;;;;;;12.80;58.29;100340.38;5053368;28;20037;-65
2022/04/22 03:02:26;;;;;;;7.00;4.28;;;;;;;12.79;58.43;100345.69;5050942;28;20146;-64
2022/04/22 03:04:53;;;;;;;7.03;4.00;;;;;;;12.82;58.11;100357.03;5052573;28;20048;-64
2022/04/22 03:07:19;;;;;;;7.28;3.92;;;;;;;12.86;58.25;100359.56;5053359;28;20033;-63
2022/04/22 03:09:45;;;;;;;6.90;3.83;;;;;;;12.85;58.06;100360.47;5052299;28;20045;-63
2022/04/22 03:12:13;;;;;;;7.97;4.30;;;;;;;12.80;58.29;100368.50;5052046;28;20098;-63
2022/04/22 03:14:39;;;;;;;7.90;4.55;;;;;;;12.77;58.41;100366.00;5050314;28;20041;-64
2022/04/22 03:17:05;;;;;;;6.18;4.18;;;;;;;12.62;58.89;100363.81;5052884;28;20032;-64
2022/04/22 03:19:31;;;;;;;5.97;4.35;;;;;;;12.64;58.71;100369.91;5053235;28;20087;-64
2022/04/22 03:21:57;;;;;;;6.45;3.67;;;;;;;12.57;58.90;100369.25;5052516;28;20457;-65
2022/04/22 03:24:23;;;;;;;6.53;3.95;;;;;;;12.46;59.24;100372.19;5053135;28;20090;-65
2022/04/22 03:26:49;;;;;;;6.15;3.97;;;;;;;12.35;59.55;100376.03;5053117;28;20037;-65
2022/04/22 03:29:14;;;;;;;5.53;3.67;;;;;;;12.29;59.78;100377.09;5051993;28;20037;-65
2022/04/22 03:31:40;;;;;;;5.65;3.60;;;;;;;12.13;60.43;100376.66;5052939;28;20087;-64
2022/04/22 03:34:05;;;;;;;7.25;3.45;;;;;;;12.10;60.28;100370.63;5052429;28;20115;-63
2022/04/22 03:36:31;;;;;;;9.68;3.50;;;;;;;12.03;60.36;100383.94;5059644;28;20401;-65
2022/04/22 03:38:56;;;;;;;5.47;2.80;;;;;;;12.06;60.18;100378.59;5052716;28;20033;-66
2022/04/22 03:41:22;;;;;;;4.70;2.35;;;;;;;12.10;60.01;100387.28;5052970;28;20037;-65
2022/04/22 03:43:47;;;;;;;4.90;2.60;;;;;;;12.18;59.68;100385.28;5052599;28;20037;-65
2022/04/22 03:46:13;;;;;;;4.85;2.55;;;;;;;12.30;59.09;100376.19;5052861;28;20040;-65
2022/04/22 03:48:39;;;;;;;4.82;2.30;;;;;;;12.44;58.60;100375.75;5052725;28;20037;-65
2022/04/22 03:51:04;;;;;;;4.20;2.28;;;;;;;12.53;58.23;100379.00;5050873;28;20036;-65
2022/04/22 03:53:30;;;;;;;3.22;1.88;;;;;;;12.54;57.88;100382.50;5053108;28;20033;-65
2022/04/22 03:58:10;;;;;;;2.15;1.80;;;;;;;12.61;57.66;100375.25;5051725;28;20071;-65
2022/04/22 03:58:40;;;;;;;3.08;1.75;;;;;;;12.72;57.31;100384.56;5052075;28;20501;-64
2022/04/22 04:01:06;;;;;;;3.15;2.05;;;;;;;12.66;57.37;100378.63;5043848;28;20112;-65
2022/04/22 04:03:32;;;;;;;3.75;1.70;;;;;;;12.73;57.30;100385.47;5049477;28;20040;-65
2022/04/22 04:05:57;;;;;;;3.50;1.70;;;;;;;12.71;57.02;100387.25;5050631;28;20045;-65
2022/04/22 04:08:24;;;;;;;2.85;1.80;;;;;;;12.73;56.89;100393.38;5050532;28;20098;-65
2022/04/22 04:16:18;;;;;;;3.85;1.75;;;;;;;12.94;56.37;100395.34;5044585;28;21889;-66
2022/04/22 04:18:44;;;;;;;3.03;1.70;;;;;;;12.96;56.27;100400.53;5042656;28;20029;-64
2022/04/22 04:23:56;;;;;;;3.50;1.92;;;;;;;12.92;56.15;100402.41;5043478;28;20383;-60
2022/04/22 04:26:24;;;;;;;2.50;1.85;;;;;;;12.59;56.89;100393.75;5052929;28;20037;-64
2022/04/22 04:28:50;;;;;;;1.73;1.35;;;;;;;12.51;57.25;100401.88;5054134;28;20025;-66
2022/04/22 04:31:16;;;;;;;3.47;1.58;;;;;;;12.51;57.34;100401.03;5052879;28;20052;-64
2022/04/22 04:33:42;;;;;;;3.30;1.73;;;;;;;12.34;57.83;100409.44;5053497;28;20037;-65
2022/04/22 04:36:12;;;;;;;2.80;1.70;;;;;;;12.29;57.87;100406.06;5049636;28;20033;-63
2022/04/22 04:38:39;;;;;;;3.47;2.00;;;;;;;12.25;58.33;100412.34;5050682;28;20175;-64
2022/04/22 04:41:07;;;;;;;2.65;1.70;;;;;;;12.42;57.82;100406.59;5053434;28;20388;-64
2022/04/22 04:43:34;;;;;;;2.17;1.65;;;;;;;12.64;57.30;100414.72;5042346;28;21175;-64
2022/04/22 04:45:59;;;;;;;2.67;1.83;;;;;;;12.84;56.87;100409.69;5051928;28;20031;-65
2022/04/22 04:48:24;;;;;;;2.28;1.70;;;;;;;13.00;56.46;100415.38;5053287;28;20033;-65
2022/04/22 04:50:51;;;;;;;2.97;2.20;;;;;;;13.07;56.18;100415.13;5052864;28;20045;-64
2022/04/22 04:53:17;;;;;;;3.22;1.80;;;;;;;13.13;56.08;100422.00;5055985;28;20037;-62
2022/04/22 04:55:44;;;;;;;3.85;2.08;;;;;;;13.10;56.30;100423.88;5053158;28;20043;-64
2022/04/22 04:58:10;;;;;;;3.95;2.00;;;;;;;13.16;56.18;100423.66;5052542;28;20021;-64
2022/04/22 05:00:35;;;;;;;3.22;1.80;;;;;;;13.14;56.20;100430.78;5053120;28;20495;-64
2022/04/22 05:03:01;;;;;;;2.72;1.95;;;;;;;13.23;56.03;100439.28;5052329;28;20456;-63
2022/04/22 05:05:27;;;;;;;3.63;2.35;;;;;;;13.24;55.93;100434.88;5053162;28;20033;-65
2022/04/22 05:07:56;;;;;;;2.30;1.77;;;;;;;13.32;55.78;100430.22;5054583;28;20037;-65
2022/04/22 05:10:22;;;;;;;3.83;2.10;;;;;;;13.30;55.90;100438.19;5054237;28;20033;-64
2022/04/22 05:12:49;;;;;;;2.40;2.05;;;;;;;13.25;55.98;100436.63;5052407;28;20036;-64
2022/04/22 05:15:15;;;;;;;3.20;1.90;;;;;;;13.18;56.22;100432.41;5053887;28;20408;-64
2022/04/22 05:17:45;;;;;;;4.28;1.90;;;;;;;13.42;55.66;100425.50;5054348;28;20037;-63
2022/04/22 05:20:13;;;;;;;2.03;1.60;;;;;;;13.52;55.57;100432.19;5054213;28;20052;-64
2022/04/22 05:22:39;;;;;;;3.83;1.65;;;;;;;13.59;55.39;100430.22;5054121;28;20041;-63
2022/04/22 05:25:07;;;;;;;2.50;1.80;;;;;;;13.87;54.81;100435.44;5048013;28;20036;-63
2022/04/22 05:27:33;;;;;;;3.13;2.03;;;;;;;14.18;54.07;100437.88;5052884;28;20041;-64
2022/04/22 05:32:47;;;;;;;3.35;2.25;;;;;;;14.64;52.85;100433.59;5052982;28;20487;-64
2022/04/22 05:35:14;;;;;;;4.00;2.40;;;;;;;14.69;52.66;100439.59;5052299;28;20037;-65
2022/04/22 05:38:00;;;;;;;3.65;2.08;;;;;;;14.47;52.80;100440.31;5054684;28;20055;-64
2022/04/22 05:40:28;;;;;;;3.28;1.88;;;;;;;14.43;53.25;100433.44;5053204;28;20417;-65
2022/04/22 05:42:55;;;;;;;4.85;2.00;;;;;;;14.63;52.83;100439.78;5054378;28;20045;-64
2022/04/22 05:45:21;;;;;;;2.45;1.77;;;;;;;14.85;52.36;100434.56;5057878;28;20050;-65
2022/04/22 05:47:48;;;;;;;3.53;2.20;;;;;;;14.82;52.50;100446.13;5057509;28;20087;-64
2022/04/22 05:50:15;;;;;;;4.70;2.10;;;;;;;14.77;52.48;100443.66;5052939;28;20053;-64
2022/04/22 05:52:41;;;;;;;3.80;2.08;;;;;;;14.78;52.71;100441.88;5053498;28;20040;-64
2022/04/22 05:55:09;;;;;;;4.72;2.30;;;;;;;14.77;52.80;100448.94;5053953;28;20082;-63
2022/04/22 05:57:35;;;;;;;3.15;2.38;;;;;;;14.83;52.89;100450.47;5054209;28;20036;-64
2022/04/22 06:00:05;;;;;;;3.22;2.20;;;;;;;15.03;52.35;100442.63;5053200;28;20043;-64
2022/04/22 06:02:31;;;;;;;4.18;2.35;;;;;;;15.15;52.12;100443.09;5052090;28;20467;-65
2022/04/22 06:04:56;;;;;;;3.05;2.13;;;;;;;15.31;51.85;100438.91;5052825;28;20084;-65
2022/04/22 06:07:22;;;;;;;4.45;1.85;;;;;;;15.40;51.67;100449.13;5053120;28;20037;-65
2022/04/22 06:12:31;;;;;;;2.40;1.67;;;;;;;15.66;51.20;100444.59;5064304;28;20090;-65
2022/04/22 06:15:02;;;;;;;2.90;1.80;;;;;;;15.87;50.75;100443.66;5059520;28;20835;-66
2022/04/22 06:17:28;;;;;;;3.75;2.03;;;;;;;16.12;50.28;100447.94;5054574;28;20032;-64
2022/04/22 06:19:53;;;;;;;2.95;1.73;;;;;;;16.17;49.94;100441.50;5053027;28;20388;-64
2022/04/22 06:22:19;;;;;;;3.88;2.13;;;;;;;16.24;49.97;100442.97;5053565;28;20025;-66
2022/04/22 06:24:44;;;;;;;7.82;2.03;;;;;;;16.19;50.07;100444.06;5056223;28;20036;-67
2022/04/22 06:27:10;;;;;;;3.25;2.03;;;;;;;16.02;50.37;100448.31;5067909;28;20132;-67
2022/04/22 06:29:37;;;;;;;2.50;1.75;;;;;;;15.93;50.82;100443.44;5054159;28;20044;-66
2022/04/22 06:32:03;;;;;;;3.00;1.80;;;;;;;15.88;50.72;100453.38;5053885;28;20473;-64
2022/04/22 06:34:29;;;;;;;3.10;2.00;;;;;;;15.83;50.92;100450.03;5053942;28;20029;-67
2022/04/22 06:36:54;;;;;;;3.05;2.25;;;;;;;15.80;50.95;100450.19;5053734;28;20040;-64
2022/04/22 06:39:20;;;;;;;4.35;2.03;;;;;;;15.83;50.91;100442.06;5054175;28;20033;-65
2022/04/22 06:47:14;;;;;;;6.68;3.05;;;;;;;15.75;50.99;100457.44;5053911;28;20179;-64
2022/04/22 06:49:40;;;;;;;4.15;2.33;;;;;;;16.16;50.17;100465.44;5053553;28;20656;-64
2022/04/22 06:52:06;;;;;;;3.63;2.10;;;;;;;16.24;50.06;100458.00;5052306;28;20040;-65
2022/04/22 06:54:32;;;;;;;4.55;1.95;;;;;;;16.38;49.62;100465.34;5053340;28;20123;-65
2022/04/22 06:57:00;;;;;;;6.28;2.50;;;;;;;16.21;49.93;100469.59;5053587;28;20037;-65
2022/04/22 06:59:26;;;;;;;6.40;2.40;;;;;;;16.08;50.30;100464.88;5053348;28;20059;-65
2022/04/22 07:01:51;;;;;;;4.30;2.28;;;;;;;15.97;50.62;100475.97;5053253;28;20473;-64
2022/04/22 07:04:17;;;;;;;2.92;2.10;;;;;;;16.12;50.40;100475.31;5053394;28;20037;-65
2022/04/22 07:06:43;;;;;;;4.03;2.88;;;;;;;16.25;50.19;100471.19;5053143;28;20029;-65
2022/04/22 07:09:10;;;;;;;4.28;2.60;;;;;;;16.25;50.07;100479.13;5053408;28;20043;-66
2022/04/22 07:11:38;;;;;;;4.03;2.60;;;;;;;16.31;49.93;100463.88;5053117;28;20033;-64
2022/04/22 07:14:04;;;;;;;3.97;2.90;;;;;;;16.42;49.78;100475.75;5053226;28;20040;-65
2022/04/22 07:16:29;;;;;;;3.17;2.20;;;;;;;16.41;49.53;100478.47;5053126;28;20041;-64
2022/04/22 07:18:56;;;;;;;3.85;2.38;;;;;;;16.63;49.25;100476.56;5053231;28;20037;-64
2022/04/22 07:21:22;;;;;;;8.05;4.65;;;;;;;16.74;48.81;100473.47;5053600;28;20036;-65
2022/04/22 07:23:48;;;;;;;4.72;2.60;;;;;;;16.77;47.58;100481.28;5053234;28;20095;-65
2022/04/22 07:26:16;;;;;;;4.47;2.65;;;;;;;16.78;47.13;100474.19;5053398;28;20067;-65
2022/04/22 07:28:48;;;;;;;2.30;0.95;;;;;;;16.78;46.74;100482.16;5053371;28;20531;-64
2022/04/22 07:31:20;;;;;;;3.13;1.13;;;;;;;16.75;46.07;100478.69;5053136;28;20039;-65
2022/04/22 07:33:46;;;;;;;3.58;1.63;;;;;;;16.82;47.01;100473.13;5053063;28;20041;-65
2022/04/22 07:36:12;;;;;;;4.20;1.92;;;;;;;16.87;46.88;100479.94;5053314;28;20037;-65
2022/04/22 07:38:37;;;;;;;4.50;1.98;;;;;;;16.72;47.22;100480.63;5053075;28;20041;-65
2022/04/22 07:41:07;;;;;;;4.43;2.28;;;;;;;16.65;47.07;100489.78;5053086;28;20033;-65
2022/04/22 07:49:03;;;;;;;3.25;2.30;;;;;;;16.66;47.57;100487.03;5053397;28;20068;-66
2022/04/22 07:51:28;;;;;;;2.72;1.73;;;;;;;16.80;47.17;100494.44;5053266;28;20029;-65
2022/04/22 07:53:57;;;;;;;3.17;1.95;;;;;;;16.88;46.68;100494.09;5055571;28;20047;-64
2022/04/22 07:56:23;;;;;;;1.88;1.35;;;;;;;17.01;46.09;100489.91;5056963;28;20086;-64
2022/04/22 07:58:49;;;;;;;2.28;1.17;;;;;;;17.13;45.80;100496.47;5056910;28;20028;-64
2022/04/22 08:01:14;;;;;;;2.13;1.33;;;;;;;17.48;45.02;100495.63;5055693;28;20031;-65
2022/04/22 08:03:40;;;;;;;1.60;1.00;;;;;;;17.70;44.43;100497.22;5056777;28;20033;-63
2022/04/22 08:06:10;;;;;;;4.25;1.40;;;;;;;18.03;43.72;100496.50;5056709;28;20116;-64
2022/04/22 08:08:36;;;;;;;2.47;1.08;;;;;;;18.21;43.28;100490.28;5056705;28;20121;-64
2022/04/22 08:11:02;;;;;;;2.15;1.23;;;;;;;18.47;42.63;100488.91;5056687;28;20091;-64
2022/04/22 08:13:27;;;;;;;1.83;1.10;;;;;;;18.69;42.29;100491.28;5054703;28;20033;-64
2022/04/22 08:15:53;;;;;;;2.03;1.20;;;;;;;18.93;41.55;100490.00;5056076;28;20039;-63
2022/04/22 08:18:18;;;;;;;1.75;1.00;;;;;;;19.01;41.54;100486.06;5056519;28;20040;-63
2022/04/22 08:20:44;;;;;;;1.20;0.82;;;;;;;18.74;41.71;100485.75;5056173;28;20045;-63
2022/04/22 08:23:09;;;;;;;2.15;1.52;;;;;;;18.72;41.91;100493.84;5056395;28;20033;-64
2022/04/22 08:25:35;;;;;;;3.00;1.60;;;;;;;18.69;41.87;100496.63;5056695;28;20033;-63
2022/04/22 08:28:03;;;;;;;2.65;1.42;;;;;;;18.76;42.00;100497.19;5056389;28;20468;-64
2022/04/22 08:30:28;;;;;;;2.85;1.83;;;;;;;18.80;41.32;100499.59;5056309;28;20028;-64
2022/04/22 08:32:54;;;;;;;1.45;1.10;;;;;;;18.91;41.60;100493.69;5056336;28;20055;-64
2022/04/22 08:35:19;;;;;;;5.45;3.35;;;;;;;19.02;40.87;100498.41;5054980;28;20111;-65
2022/04/22 08:37:45;;;;;;;3.17;1.80;;;;;;;18.90;41.12;100490.16;5055867;28;20061;-64
2022/04/22 08:40:11;;;;;;;2.45;1.40;;;;;;;19.07;41.28;100493.69;5056346;28;20036;-64
2022/04/22 08:42:38;;;;;;;2.25;1.52;;;;;;;19.27;40.65;100496.13;5056215;28;20029;-64
2022/04/22 08:45:05;;;;;;;1.98;1.20;;;;;;;19.40;39.95;100494.50;5056168;28;20035;-62
2022/04/22 08:50:19;;;;;;;2.85;1.40;;;;;;;19.03;40.78;100497.47;5056352;28;20048;-64
2022/04/22 08:53:12;;;;;;;2.50;1.50;;;;;;;19.06;40.43;100490.19;5056232;28;20112;-63
2022/04/22 08:55:39;;;;;;;7.00;4.20;;;;;;;18.89;41.32;100485.78;5055730;28;20051;-64
2022/04/22 08:58:05;;;;;;;6.28;3.03;;;;;;;19.20;40.69;100484.09;5055624;28;20078;-64
2022/04/22 09:00:35;;;;;;;17.67;9.05;;;;;;;18.95;40.11;100493.44;5054344;28;20053;-63
2022/04/22 09:03:00;;;;;;;19.60;10.27;;;;;;;18.78;40.73;100481.97;5055341;28;20376;-64
2022/04/22 09:05:26;;;;;;;22.50;11.77;;;;;;;18.70;41.16;100490.38;5054496;28;20119;-64
2022/04/22 09:07:53;;;;;;;15.27;7.90;;;;;;;18.44;41.48;100489.94;5055464;28;20033;-63
2022/04/22 09:10:19;;;;;;;17.05;8.38;;;;;;;18.22;41.70;100487.53;5055787;28;20033;-63
2022/04/22 09:12:53;;;;;;;17.92;8.00;;;;;;;18.01;41.42;100490.44;5055412;28;20444;-64
2022/04/22 09:15:22;;;;;;;17.88;8.90;;;;;;;17.99;42.07;100487.81;5055345;28;20036;-63
2022/04/22 09:17:47;;;;;;;18.73;10.25;;;;;;;18.01;41.90;100485.13;5055353;28;20025;-63
2022/04/22 09:20:17;;;;;;;10.50;6.25;;;;;;;18.11;41.81;100487.22;5055422;28;20053;-64
2022/04/22 09:22:46;;;;;;;10.10;4.85;;;;;;;18.19;41.52;100484.16;5055294;28;20037;-63
2022/04/22 09:25:11;;;;;;;9.57;4.43;;;;;;;18.28;40.99;100485.50;5055336;28;20064;-65
2022/04/22 09:27:42;;;;;;;4.40;2.75;;;;;;;18.39;40.98;100483.13;5055056;28;20138;-64
2022/04/22 09:30:10;;;;;;;7.72;4.20;;;;;;;18.24;41.37;100481.28;5055371;28;20147;-64
2022/04/22 09:32:39;;;;;;;6.55;3.53;;;;;;;18.12;41.52;100478.31;5051971;28;20431;-65
2022/04/22 09:35:20;;;;;;;7.72;4.13;;;;;;;18.27;40.96;100471.31;5054726;28;20043;-64
2022/04/22 09:43:21;;;;;;;9.13;4.60;;;;;;;18.39;40.48;100465.38;5054717;28;20530;-63
2022/04/22 09:45:47;;;;;;;12.95;6.40;;;;;;;18.26;41.18;100458.97;5054397;28;20041;-63
2022/04/22 09:48:15;;;;;;;7.20;4.57;;;;;;;18.59;40.45;100466.09;5054713;28;20065;-64
2022/04/22 09:50:46;;;;;;;6.22;4.05;;;;;;;18.96;40.05;100465.03;5053371;28;20037;-65
2022/04/22 09:53:17;;;;;;;3.60;2.63;;;;;;;19.28;39.11;100465.03;5054293;28;20037;-64
2022/04/22 09:55:47;;;;;;;4.38;2.60;;;;;;;19.42;38.41;100465.94;5054234;28;20025;-64
2022/04/22 09:58:21;;;;;;;4.90;2.67;;;;;;;19.59;37.79;100458.78;5054434;28;20150;-64
2022/04/22 10:00:49;;;;;;;5.47;3.03;;;;;;;19.85;38.07;100466.16;5053938;28;20045;-62
2022/04/22 10:03:16;;;;;;;4.20;3.10;;;;;;;19.79;38.06;100471.00;5054441;28;20041;-64
2022/04/22 10:05:42;;;;;;;3.95;3.00;;;;;;;19.66;38.32;100465.53;5054309;28;20468;-63
2022/04/22 10:08:10;;;;;;;5.68;3.10;;;;;;;19.69;38.14;100460.88;5054499;28;20037;-64
2022/04/22 10:10:39;;;;;;;6.97;4.80;;;;;;;19.33;37.89;100468.28;5054552;28;20029;-65
2022/04/22 10:13:05;;;;;;;4.75;3.33;;;;;;;19.25;38.55;100460.72;5054044;28;20033;-64
2022/04/22 10:15:35;;;;;;;3.25;2.40;;;;;;;19.43;38.14;100457.03;5053161;28;20465;-64
2022/04/22 10:18:01;;;;;;;5.90;3.45;;;;;;;19.45;38.11;100464.91;5052720;28;20116;-65
2022/04/22 10:20:26;;;;;;;5.13;3.58;;;;;;;19.38;38.02;100455.56;5052734;28;20057;-65
2022/04/22 10:22:52;;;;;;;3.75;2.70;;;;;;;19.53;37.38;100449.34;5053130;28;20036;-65
2022/04/22 10:25:19;;;;;;;2.70;2.13;;;;;;;19.67;37.47;100464.59;5054218;28;20495;-65
2022/04/22 10:27:46;;;;;;;5.10;3.00;;;;;;;19.79;36.87;100449.66;5054108;28;20472;-64
2022/04/22 10:30:13;;;;;;;3.88;2.75;;;;;;;19.92;36.91;100456.88;5054126;28;20040;-63
2022/04/22 10:32:41;;;;;;;3.95;3.17;;;;;;;20.00;36.63;100455.56;5053861;28;20132;-66
2022/04/22 10:35:07;;;;;;;5.80;3.65;;;;;;;19.56;37.47;100451.00;5053828;28;20068;-65
2022/04/22 10:37:34;;;;;;;5.50;4.30;;;;;;;19.22;37.53;100454.72;5053920;28;20040;-65
2022/04/22 10:40:01;;;;;;;5.68;4.32;;;;;;;19.09;37.33;100447.41;5053965;28;20033;-64
2022/04/22 10:42:32;;;;;;;6.10;3.78;;;;;;;18.76;37.77;100451.94;5053947;28;20476;-65
2022/04/22 10:47:48;;;;;;;3.90;2.75;;;;;;;18.86;37.68;100461.97;5053848;28;20519;-63
2022/04/22 10:50:25;;;;;;;3.15;2.67;;;;;;;18.89;36.79;100453.84;5053665;28;20116;-64
2022/04/22 10:53:03;;;;;;;3.47;2.50;;;;;;;19.11;36.84;100441.97;5052266;28;20425;-64
2022/04/22 10:55:34;;;;;;;3.30;2.55;;;;;;;19.26;36.15;100443.78;5053600;28;20025;-64
2022/04/22 10:58:21;;;;;;;6.03;2.97;;;;;;;19.50;35.84;100452.19;5053707;28;20127;-65
2022/04/22 11:00:51;;;;;;;3.42;3.05;;;;;;;19.58;35.75;100435.75;5053877;28;20036;-65
2022/04/22 11:03:21;;;;;;;3.50;2.97;;;;;;;19.67;36.08;100437.94;5053417;28;20425;-65
2022/04/22 11:05:59;;;;;;;4.30;3.30;;;;;;;19.68;35.13;100437.00;5053297;28;20037;-66
2022/04/22 11:08:33;;;;;;;3.78;3.17;;;;;;;19.65;34.67;100447.81;5053734;28;20086;-65
2022/04/22 11:11:02;;;;;;;3.58;2.72;;;;;;;19.64;35.14;100435.44;5053202;28;20531;-65
2022/04/22 11:13:29;;;;;;;4.28;3.38;;;;;;;19.54;35.12;100443.06;5052071;28;20028;-65
2022/04/22 11:16:07;;;;;;;3.80;3.40;;;;;;;19.26;34.74;100435.78;5053334;28;20527;-65
2022/04/22 11:18:41;;;;;;;4.05;3.00;;;;;;;19.28;34.89;100428.59;5053544;28;20090;-65
2022/04/22 11:21:19;;;;;;;3.88;3.03;;;;;;;19.37;34.15;100441.38;5053604;28;20106;-64
2022/04/22 11:23:45;;;;;;;3.60;3.08;;;;;;;19.32;34.93;100440.78;5053286;28;20575;-65
2022/04/22 11:26:14;;;;;;;3.65;3.13;;;;;;;19.40;34.88;100430.56;5048383;28;20045;-65
2022/04/22 11:28:41;;;;;;;5.15;3.00;;;;;;;19.57;35.14;100428.72;5057311;28;20036;-64
2022/04/22 11:31:10;;;;;;;5.03;3.83;;;;;;;19.57;35.18;100431.38;5059921;28;20449;-63
2022/04/22 11:34:02;;;;;;;4.85;4.05;;;;;;;19.53;34.41;100422.69;5058734;28;20040;-64
2022/04/22 11:36:28;;;;;;;4.30;3.50;;;;;;;19.63;34.91;100428.41;5059587;28;20025;-64
2022/04/22 11:38:55;;;;;;;4.70;3.60;;;;;;;19.82;34.64;100428.16;5059759;28;20033;-64
2022/04/22 11:41:21;;;;;;;4.07;2.85;;;;;;;19.93;34.31;100425.72;5057037;28;20549;-64
2022/04/22 11:43:48;;;;;;;3.88;3.22;;;;;;;19.83;33.97;100420.09;5058775;28;20044;-63
2022/04/22 11:46:17;;;;;;;6.68;4.20;;;;;;;19.56;34.18;100411.88;5062662;28;20499;-64
2022/04/22 11:48:47;;;;;;;5.03;3.30;;;;;;;19.77;34.18;100408.91;5058014;28;20059;-64
2022/04/22 11:51:14;;;;;;;4.30;3.90;;;;;;;19.72;34.32;100401.19;5056849;28;20037;-65
2022/04/22 11:53:45;;;;;;;4.00;3.33;;;;;;;19.59;32.55;100405.47;5059577;28;20037;-64
2022/04/22 11:56:15;;;;;;;4.85;3.40;;;;;;;19.57;33.08;100402.94;5058036;28;20033;-65
2022/04/22 11:58:41;;;;;;;3.35;2.78;;;;;;;19.57;33.76;100402.94;5059957;28;20380;-64
2022/04/22 12:06:38;;;;;;;3.65;3.10;;;;;;;19.72;32.96;100401.19;5044952;28;20040;-64
2022/04/22 12:09:05;;;;;;;4.28;3.30;;;;;;;19.53;32.52;100396.06;5063555;28;20037;-65
2022/04/22 12:11:39;;;;;;;3.45;3.00;;;;;;;19.65;31.83;100395.38;5050237;28;20033;-65
2022/04/22 12:14:04;;;;;;;5.03;3.00;;;;;;;19.61;32.50;100393.84;5051395;28;20407;-66
2022/04/22 12:16:30;;;;;;;5.03;2.72;;;;;;;19.75;32.15;100395.69;5058860;28;20044;-64